Time;durP1;ratioP1;P1;durP2;ratioP2;P2;SDS_P1;SDS_P2;PMS_P1;PMS_P2;Temp;Humidity;BMP_temperature;BMP_pressure;BME280_temperature;BME280_humidity;BME280_pressure;Samples;Min_cycle;Max_cycle;Signal;HPM_P1;HPM_P2
2021/03/18 00:00:11;;;;;;;2.58;1.77;;;0.80;99.90;;;;;;4956688;28;20504;-85
2021/03/18 00:02:38;;;;;;;3.22;2.22;;;0.80;99.90;;;;;;4941150;28;20062;-85
2021/03/18 00:05:07;;;;;;;2.03;1.83;;;0.80;99.90;;;;;;4959611;28;20642;-85
2021/03/18 00:07:35;;;;;;;2.63;1.92;;;0.80;99.90;;;;;;4967882;28;20058;-85
2021/03/18 00:10:06;;;;;;;2.17;1.85;;;0.70;99.90;;;;;;4957260;28;20047;-85
2021/03/18 00:12:33;;;;;;;2.13;1.75;;;0.80;99.90;;;;;;4964327;28;20057;-85
2021/03/18 00:15:06;;;;;;;2.60;2.20;;;0.80;99.90;;;;;;4959503;28;20054;-85
2021/03/18 00:17:32;;;;;;;2.00;1.50;;;0.80;99.90;;;;;;4960459;28;20066;-85
2021/03/18 00:20:01;;;;;;;2.70;1.80;;;0.80;99.90;;;;;;4949018;28;20412;-85
2021/03/18 00:22:27;;;;;;;2.75;2.20;;;0.80;99.90;;;;;;4971389;28;20042;-85
2021/03/18 00:24:54;;;;;;;3.08;2.08;;;0.80;99.90;;;;;;4958789;28;20039;-85
2021/03/18 00:27:23;;;;;;;1.80;1.70;;;0.70;99.90;;;;;;4954069;28;20350;-85
2021/03/18 00:29:50;;;;;;;4.05;2.17;;;0.80;99.90;;;;;;4972264;28;20046;-86
2021/03/18 00:32:17;;;;;;;3.05;2.05;;;0.80;99.90;;;;;;4956579;28;20551;-85
2021/03/18 00:34:44;;;;;;;2.83;1.85;;;0.80;99.90;;;;;;4948850;28;20152;-85
2021/03/18 00:37:11;;;;;;;3.55;2.35;;;0.80;99.90;;;;;;4960000;28;20590;-85
2021/03/18 00:39:37;;;;;;;2.92;2.15;;;0.80;99.90;;;;;;4957028;28;20042;-85
2021/03/18 00:42:04;;;;;;;3.65;2.15;;;0.80;99.90;;;;;;4952931;28;20051;-85
2021/03/18 00:44:31;;;;;;;2.13;1.92;;;0.90;99.90;;;;;;4959196;28;20051;-85
2021/03/18 00:46:57;;;;;;;2.17;1.95;;;0.80;99.90;;;;;;4951699;28;20070;-85
2021/03/18 00:49:24;;;;;;;3.05;2.17;;;0.90;99.90;;;;;;4958102;28;20047;-85
2021/03/18 00:51:51;;;;;;;3.28;1.85;;;0.80;99.90;;;;;;4978004;28;20109;-85
2021/03/18 00:54:18;;;;;;;5.15;2.58;;;0.80;99.90;;;;;;4978356;28;20046;-85
2021/03/18 00:56:44;;;;;;;3.97;3.58;;;0.90;99.90;;;;;;4949402;28;20050;-85
2021/03/18 00:59:11;;;;;;;2.60;2.40;;;0.90;99.90;;;;;;4948712;28;20055;-85
2021/03/18 01:01:38;;;;;;;4.28;3.05;;;0.90;99.90;;;;;;4977668;28;20130;-84
2021/03/18 01:04:06;;;;;;;2.72;2.53;;;0.90;99.90;;;;;;4962684;28;20483;-85
2021/03/18 01:06:36;;;;;;;3.20;2.88;;;0.90;99.90;;;;;;4963165;28;20053;-86
2021/03/18 01:09:05;;;;;;;2.58;2.17;;;0.90;99.90;;;;;;4967819;28;20047;-85
2021/03/18 01:11:37;;;;;;;3.70;2.70;;;0.90;99.90;;;;;;4948322;28;20708;-85
2021/03/18 01:14:08;;;;;;;2.47;2.13;;;0.90;99.90;;;;;;4960078;28;20061;-85
2021/03/18 01:16:45;;;;;;;6.10;2.70;;;0.90;99.90;;;;;;4962179;28;20531;-85
2021/03/18 01:19:12;;;;;;;3.00;2.47;;;0.90;99.90;;;;;;4964837;28;20419;-85
2021/03/18 01:21:46;;;;;;;3.10;2.55;;;1.00;99.90;;;;;;4964749;28;20061;-86
2021/03/18 01:24:13;;;;;;;4.82;2.85;;;1.00;99.90;;;;;;4955350;28;20049;-86
2021/03/18 01:26:41;;;;;;;2.83;2.50;;;1.00;99.90;;;;;;4957376;28;20073;-85
2021/03/18 01:29:08;;;;;;;2.70;1.95;;;1.00;99.90;;;;;;4963210;28;20050;-85
2021/03/18 01:31:35;;;;;;;2.30;2.10;;;1.00;99.90;;;;;;4964120;28;20050;-85
2021/03/18 01:34:04;;;;;;;2.92;1.92;;;1.00;99.90;;;;;;4953022;28;20078;-85
2021/03/18 01:36:32;;;;;;;2.63;1.80;;;1.10;99.90;;;;;;4962028;28;20138;-85
2021/03/18 01:38:58;;;;;;;3.83;2.53;;;1.10;99.90;;;;;;4955850;28;20039;-85
2021/03/18 01:41:27;;;;;;;4.88;2.20;;;1.10;99.90;;;;;;4969773;28;20055;-85
2021/03/18 01:43:54;;;;;;;2.97;2.53;;;1.10;99.90;;;;;;4961752;28;20038;-85
2021/03/18 01:46:21;;;;;;;2.95;2.58;;;1.10;99.90;;;;;;4961260;28;20821;-85
2021/03/18 01:48:48;;;;;;;2.50;2.30;;;1.10;99.90;;;;;;4962485;28;20069;-85
2021/03/18 01:51:16;;;;;;;2.42;2.03;;;1.10;99.90;;;;;;4959283;28;20061;-85
2021/03/18 01:53:43;;;;;;;3.05;2.40;;;1.20;99.90;;;;;;4962218;28;20127;-85
2021/03/18 01:56:09;;;;;;;6.88;2.97;;;1.20;99.90;;;;;;4962043;28;20125;-85
2021/03/18 01:58:44;;;;;;;6.55;2.15;;;1.20;99.90;;;;;;4962686;28;20069;-85
2021/03/18 02:01:12;;;;;;;3.53;2.20;;;1.20;99.90;;;;;;4971933;28;20057;-85
2021/03/18 02:03:41;;;;;;;4.38;2.15;;;1.20;99.90;;;;;;4972399;28;20511;-85
2021/03/18 02:06:08;;;;;;;3.50;2.60;;;1.20;99.90;;;;;;4962694;28;20583;-85
2021/03/18 02:08:35;;;;;;;3.78;2.60;;;1.20;99.90;;;;;;4957353;28;20155;-85
2021/03/18 02:11:03;;;;;;;3.08;2.53;;;1.20;99.90;;;;;;4962919;28;20072;-85
2021/03/18 02:13:30;;;;;;;3.05;2.65;;;1.20;99.90;;;;;;4962327;28;20150;-85
2021/03/18 02:16:04;;;;;;;3.65;2.35;;;1.20;99.90;;;;;;4960168;28;20055;-85
2021/03/18 02:19:09;;;;;;;3.42;2.03;;;1.20;99.90;;;;;;4957149;28;21089;-85
2021/03/18 02:22:13;;;;;;;2.55;2.05;;;1.20;99.90;;;;;;4957407;28;20051;-85
2021/03/18 02:24:57;;;;;;;4.75;2.72;;;1.20;99.90;;;;;;4957531;28;20054;-86
2021/03/18 02:27:33;;;;;;;4.57;3.20;;;1.20;99.90;;;;;;4968935;28;20118;-86
2021/03/18 02:30:18;;;;;;;4.97;3.15;;;1.20;99.90;;;;;;4959410;28;20078;-86
2021/03/18 02:33:18;;;;;;;3.08;2.78;;;1.20;99.90;;;;;;4961437;28;20059;-85
2021/03/18 02:35:52;;;;;;;6.68;2.97;;;1.20;99.90;;;;;;4963652;28;20061;-85
2021/03/18 02:38:23;;;;;;;3.67;2.95;;;1.20;99.90;;;;;;4959941;28;20531;-85
2021/03/18 02:40:59;;;;;;;4.82;3.10;;;1.20;99.90;;;;;;4962491;28;20073;-85
2021/03/18 02:43:28;;;;;;;4.75;2.97;;;1.20;99.90;;;;;;4962621;28;20053;-85
2021/03/18 02:45:59;;;;;;;4.78;3.72;;;1.20;99.90;;;;;;4958220;28;20063;-85
2021/03/18 02:48:35;;;;;;;3.90;3.28;;;1.20;99.90;;;;;;4953957;28;20061;-85
2021/03/18 02:51:03;;;;;;;4.10;3.08;;;1.20;99.90;;;;;;4961441;28;20093;-85
2021/03/18 02:53:33;;;;;;;4.97;3.25;;;1.20;99.90;;;;;;4971931;28;20477;-85
2021/03/18 02:56:03;;;;;;;3.58;2.80;;;1.20;99.90;;;;;;4958636;28;20059;-85
2021/03/18 02:58:35;;;;;;;11.23;4.40;;;1.20;99.90;;;;;;4963004;28;20053;-85
2021/03/18 03:01:03;;;;;;;2.67;2.47;;;1.10;99.90;;;;;;4963537;28;20281;-85
2021/03/18 03:03:41;;;;;;;3.42;2.60;;;1.20;99.90;;;;;;4964181;28;20097;-85
2021/03/18 03:06:09;;;;;;;8.82;2.80;;;1.10;99.90;;;;;;4942698;28;20428;-85
2021/03/18 03:08:37;;;;;;;3.72;2.70;;;1.10;99.90;;;;;;4961901;28;20062;-85
2021/03/18 03:11:05;;;;;;;4.47;3.28;;;1.10;99.90;;;;;;4944235;28;20417;-85
2021/03/18 03:13:34;;;;;;;3.92;3.17;;;1.10;99.90;;;;;;4961700;28;20141;-85
2021/03/18 03:16:05;;;;;;;5.07;2.93;;;1.10;99.90;;;;;;4956600;28;20058;-85
2021/03/18 03:18:33;;;;;;;5.63;3.30;;;1.10;99.90;;;;;;4961106;28;20372;-85
2021/03/18 03:21:01;;;;;;;7.38;3.13;;;1.10;99.90;;;;;;4960089;28;20050;-85
2021/03/18 03:23:30;;;;;;;6.53;3.10;;;1.10;99.90;;;;;;4962367;28;20054;-85
2021/03/18 03:26:02;;;;;;;3.92;2.95;;;1.00;99.90;;;;;;4960294;28;20647;-85
2021/03/18 03:28:32;;;;;;;3.53;3.03;;;1.00;99.90;;;;;;4958019;28;20041;-85
2021/03/18 03:31:00;;;;;;;5.35;2.90;;;1.10;99.90;;;;;;4963052;28;20717;-85
2021/03/18 03:33:29;;;;;;;7.35;2.90;;;1.00;99.90;;;;;;4974832;28;20045;-85
2021/03/18 03:36:03;;;;;;;4.40;2.83;;;1.00;99.90;;;;;;4952578;28;20093;-85
2021/03/18 03:38:29;;;;;;;2.45;2.10;;;1.10;99.90;;;;;;4948978;28;20054;-85
2021/03/18 03:40:56;;;;;;;2.83;2.58;;;1.00;99.90;;;;;;4960316;28;20046;-86
2021/03/18 03:43:24;;;;;;;3.97;2.67;;;1.10;99.90;;;;;;4973024;28;20051;-85
2021/03/18 03:45:52;;;;;;;3.58;2.75;;;1.10;99.90;;;;;;4961074;28;20698;-85
2021/03/18 03:48:20;;;;;;;2.35;2.15;;;1.10;99.90;;;;;;4961959;28;20394;-85
2021/03/18 03:50:47;;;;;;;3.25;2.65;;;1.00;99.90;;;;;;4952477;28;20158;-85
2021/03/18 03:53:31;;;;;;;2.97;2.35;;;1.10;99.90;;;;;;4962453;28;20047;-85
2021/03/18 03:56:03;;;;;;;6.13;2.70;;;1.10;99.90;;;;;;4943917;28;20513;-85
2021/03/18 03:58:55;;;;;;;3.90;3.13;;;1.00;99.90;;;;;;4951848;28;20070;-85
2021/03/18 04:01:37;;;;;;;3.17;2.83;;;1.10;99.90;;;;;;4953700;28;20046;-85
2021/03/18 04:04:34;;;;;;;3.78;2.88;;;1.10;99.90;;;;;;4956309;28;20056;-85
2021/03/18 04:07:04;;;;;;;3.50;2.58;;;1.10;99.90;;;;;;4962041;28;20348;-85
2021/03/18 04:09:34;;;;;;;4.00;2.42;;;1.10;99.90;;;;;;4954339;28;20752;-85
2021/03/18 04:12:03;;;;;;;2.65;2.30;;;1.10;99.90;;;;;;4957293;28;20098;-85
2021/03/18 04:14:34;;;;;;;9.75;2.83;;;1.10;99.90;;;;;;4954039;28;20047;-85
2021/03/18 04:17:10;;;;;;;3.88;2.08;;;1.10;99.90;;;;;;4962530;28;20051;-85
2021/03/18 04:19:37;;;;;;;4.80;2.58;;;1.10;99.90;;;;;;4960465;28;20058;-85
2021/03/18 04:22:06;;;;;;;2.95;2.50;;;1.10;99.90;;;;;;4957929;28;20441;-85
2021/03/18 04:24:34;;;;;;;3.47;2.53;;;1.10;99.90;;;;;;4976222;28;20420;-85
2021/03/18 04:27:00;;;;;;;4.05;2.95;;;1.10;99.90;;;;;;4961160;28;20038;-85
2021/03/18 04:29:30;;;;;;;4.20;2.90;;;1.00;99.90;;;;;;4959607;28;20055;-85
2021/03/18 04:31:59;;;;;;;3.33;2.90;;;1.00;99.90;;;;;;4960076;28;20196;-85
2021/03/18 04:34:47;;;;;;;6.97;2.75;;;1.00;99.90;;;;;;4960666;28;20047;-85
2021/03/18 04:37:14;;;;;;;7.55;3.42;;;1.00;99.90;;;;;;4951132;28;20122;-85
2021/03/18 04:39:42;;;;;;;2.53;2.33;;;1.00;99.90;;;;;;4960830;28;20058;-85
2021/03/18 04:42:09;;;;;;;3.33;2.42;;;1.00;99.90;;;;;;4957190;28;20058;-85
2021/03/18 04:44:37;;;;;;;4.38;2.63;;;1.10;99.90;;;;;;4961866;28;20117;-85
2021/03/18 04:47:03;;;;;;;2.60;2.00;;;1.10;99.90;;;;;;4957082;28;20157;-85
2021/03/18 04:49:32;;;;;;;3.65;2.83;;;1.10;99.90;;;;;;4954568;28;20083;-85
2021/03/18 04:51:58;;;;;;;15.13;3.60;;;1.10;99.90;;;;;;4959756;28;20047;-85
2021/03/18 04:54:25;;;;;;;2.60;2.08;;;1.10;99.90;;;;;;4944727;28;20538;-84
2021/03/18 04:56:52;;;;;;;5.00;2.65;;;1.10;99.90;;;;;;4957150;28;20149;-84
2021/03/18 04:59:19;;;;;;;3.53;1.92;;;1.10;99.90;;;;;;4959515;28;20043;-85
2021/03/18 05:01:49;;;;;;;2.55;2.10;;;1.10;99.90;;;;;;4956262;28;20397;-85
2021/03/18 05:04:18;;;;;;;3.95;2.97;;;1.10;99.90;;;;;;4971308;28;20089;-85
2021/03/18 05:06:56;;;;;;;4.82;3.03;;;1.10;99.90;;;;;;4959391;28;20086;-85
2021/03/18 05:09:24;;;;;;;7.30;2.92;;;1.10;99.90;;;;;;4954248;28;20058;-85
2021/03/18 05:11:53;;;;;;;3.20;2.20;;;1.10;99.90;;;;;;4956778;28;20073;-85
2021/03/18 05:14:20;;;;;;;6.93;2.80;;;1.10;99.90;;;;;;4955150;28;20043;-85
2021/03/18 05:16:52;;;;;;;3.15;2.35;;;1.10;99.90;;;;;;4960270;28;20051;-85
2021/03/18 05:19:19;;;;;;;3.15;2.72;;;1.10;99.90;;;;;;4959410;28;20058;-85
2021/03/18 05:21:47;;;;;;;5.80;3.13;;;1.10;99.90;;;;;;4961235;28;20049;-86
2021/03/18 05:24:15;;;;;;;3.72;2.60;;;1.10;99.90;;;;;;4944719;28;20038;-85
2021/03/18 05:26:43;;;;;;;11.68;3.47;;;1.20;99.90;;;;;;4955517;28;20170;-85
2021/03/18 05:29:13;;;;;;;5.03;2.53;;;1.20;99.90;;;;;;4940529;28;20048;-85
2021/03/18 05:31:41;;;;;;;3.78;2.53;;;1.20;99.90;;;;;;4957406;28;20141;-85
2021/03/18 05:34:08;;;;;;;3.60;2.58;;;1.20;99.90;;;;;;4944966;28;20500;-85
2021/03/18 05:36:35;;;;;;;3.38;2.47;;;1.20;99.90;;;;;;4959021;28;20039;-85
2021/03/18 05:39:01;;;;;;;4.75;2.75;;;1.20;99.90;;;;;;4962889;28;20050;-85
2021/03/18 05:41:28;;;;;;;7.88;3.15;;;1.20;99.90;;;;;;4970106;28;20105;-85
2021/03/18 05:43:55;;;;;;;8.98;2.90;;;1.20;99.90;;;;;;4963874;28;20057;-85
2021/03/18 05:46:23;;;;;;;5.07;2.60;;;1.30;99.90;;;;;;4960973;28;20109;-85
2021/03/18 05:48:53;;;;;;;5.45;2.67;;;1.30;99.90;;;;;;4954922;28;20134;-85
2021/03/18 05:51:21;;;;;;;10.85;2.70;;;1.30;99.90;;;;;;4944339;28;20054;-85
2021/03/18 05:53:49;;;;;;;3.97;1.85;;;1.20;99.90;;;;;;4960503;28;20046;-85
2021/03/18 05:56:18;;;;;;;4.22;2.58;;;1.30;99.90;;;;;;4967113;28;20053;-85
2021/03/18 05:58:46;;;;;;;3.58;2.80;;;1.30;99.90;;;;;;4976350;28;21479;-85
2021/03/18 06:01:14;;;;;;;4.25;2.00;;;1.40;99.90;;;;;;4960613;28;20051;-85
2021/03/18 06:03:41;;;;;;;4.28;2.10;;;1.40;99.90;;;;;;4941631;28;20058;-84
2021/03/18 06:06:09;;;;;;;7.55;2.45;;;1.40;99.90;;;;;;4943335;28;20516;-85
2021/03/18 06:08:37;;;;;;;3.50;2.13;;;1.50;99.90;;;;;;4952824;28;20058;-85
2021/03/18 06:11:05;;;;;;;5.90;2.78;;;1.50;99.90;;;;;;4942858;28;20404;-85
2021/03/18 06:13:32;;;;;;;3.72;2.20;;;1.50;99.90;;;;;;4957444;28;20069;-85
2021/03/18 06:16:01;;;;;;;5.10;2.58;;;1.60;99.90;;;;;;4957458;28;20579;-85
2021/03/18 06:18:29;;;;;;;7.47;3.15;;;1.60;99.90;;;;;;4961059;28;20062;-85
2021/03/18 06:20:56;;;;;;;4.85;2.58;;;1.70;99.90;;;;;;4961903;28;20062;-85
2021/03/18 06:23:23;;;;;;;5.95;2.38;;;1.80;99.90;;;;;;4960040;28;20069;-85
2021/03/18 06:25:52;;;;;;;5.95;2.08;;;1.80;99.90;;;;;;4957683;28;20065;-85
2021/03/18 06:28:29;;;;;;;5.43;2.25;;;1.90;99.90;;;;;;4974046;28;20086;-85
2021/03/18 06:30:58;;;;;;;3.33;2.53;;;1.90;99.90;;;;;;4961635;28;20059;-84
2021/03/18 06:33:40;;;;;;;5.47;2.50;;;1.90;99.90;;;;;;4960452;28;20034;-85
2021/03/18 06:36:33;;;;;;;18.52;3.22;;;2.00;99.90;;;;;;4944451;28;20142;-84
2021/03/18 06:39:07;;;;;;;7.28;2.75;;;2.00;99.90;;;;;;4958643;28;20049;-85
2021/03/18 06:41:38;;;;;;;7.90;2.33;;;2.00;99.90;;;;;;4946841;28;20051;-85
2021/03/18 06:44:17;;;;;;;7.03;3.95;;;2.00;99.90;;;;;;4957030;28;20051;-84
2021/03/18 06:46:44;;;;;;;10.55;3.53;;;2.10;99.90;;;;;;4961333;28;20065;-85
2021/03/18 06:49:13;;;;;;;11.23;2.92;;;2.10;99.90;;;;;;4950092;28;20062;-85
2021/03/18 06:51:41;;;;;;;5.90;2.40;;;2.10;99.90;;;;;;4955254;28;20079;-85
2021/03/18 06:54:19;;;;;;;10.38;2.70;;;2.10;99.90;;;;;;4960875;28;20046;-85
2021/03/18 06:56:57;;;;;;;14.68;5.60;;;2.20;99.90;;;;;;4959436;28;20066;-85
2021/03/18 06:59:28;;;;;;;10.20;2.63;;;2.20;99.90;;;;;;4957006;28;20053;-84
2021/03/18 07:02:05;;;;;;;2.15;1.52;;;2.20;99.90;;;;;;4973398;28;20042;-85
2021/03/18 07:04:38;;;;;;;7.13;1.73;;;2.30;99.90;;;;;;4954766;28;20050;-84
2021/03/18 07:07:06;;;;;;;3.75;2.08;;;2.30;99.90;;;;;;4962347;28;20518;-85
2021/03/18 07:09:33;;;;;;;3.47;2.42;;;2.30;99.90;;;;;;4956122;28;20058;-85
2021/03/18 07:12:09;;;;;;;5.88;2.53;;;2.30;99.90;;;;;;4958277;28;20104;-85
2021/03/18 07:14:44;;;;;;;7.60;1.63;;;2.40;99.90;;;;;;4960378;28;20125;-86
2021/03/18 07:17:16;;;;;;;6.40;2.35;;;2.40;99.90;;;;;;4959710;28;20062;-85
2021/03/18 07:19:43;;;;;;;7.03;2.97;;;2.50;99.90;;;;;;4958542;28;20038;-85
2021/03/18 07:22:20;;;;;;;4.05;2.45;;;2.50;99.90;;;;;;4958866;28;20069;-85
2021/03/18 07:24:54;;;;;;;5.22;2.20;;;2.50;99.90;;;;;;4959914;28;20704;-86
2021/03/18 07:27:20;;;;;;;2.17;1.88;;;2.60;99.90;;;;;;4961162;28;20513;-85
2021/03/18 07:29:51;;;;;;;2.45;1.60;;;2.70;99.90;;;;;;4961582;28;20109;-85
2021/03/18 07:32:17;;;;;;;9.65;1.83;;;2.70;99.90;;;;;;4958557;28;20059;-85
2021/03/18 07:34:44;;;;;;;2.88;1.80;;;2.80;99.90;;;;;;4974559;28;20043;-85
2021/03/18 07:37:12;;;;;;;11.93;2.25;;;2.90;99.90;;;;;;4960494;28;20093;-85
2021/03/18 07:39:40;;;;;;;22.83;5.90;;;3.00;99.90;;;;;;4958164;28;20066;-84
2021/03/18 07:42:08;;;;;;;6.60;1.35;;;3.10;99.90;;;;;;4956166;28;20527;-85
2021/03/18 07:44:36;;;;;;;7.57;2.08;;;3.20;99.90;;;;;;4967175;28;20761;-85
2021/03/18 07:47:05;;;;;;;9.05;1.60;;;3.20;99.90;;;;;;4974300;28;20510;-85
2021/03/18 07:49:42;;;;;;;6.05;2.53;;;3.30;99.90;;;;;;4974003;28;20133;-85
2021/03/18 07:52:15;;;;;;;11.60;2.80;;;3.20;99.90;;;;;;4955445;28;20050;-85
2021/03/18 07:54:48;;;;;;;6.57;3.20;;;3.20;99.90;;;;;;4958685;28;20054;-85
2021/03/18 07:57:19;;;;;;;4.28;1.60;;;3.30;99.90;;;;;;4954802;28;20201;-85
2021/03/18 07:59:49;;;;;;;3.83;1.85;;;3.30;99.90;;;;;;4957859;28;20077;-85
2021/03/18 08:02:23;;;;;;;13.60;2.42;;;3.20;99.90;;;;;;4939493;28;20059;-85
2021/03/18 08:04:54;;;;;;;10.38;2.40;;;3.30;99.90;;;;;;4942187;28;20070;-85
2021/03/18 08:07:52;;;;;;;6.25;2.17;;;3.30;99.90;;;;;;4956521;28;20738;-86
2021/03/18 08:10:21;;;;;;;7.60;1.80;;;3.30;99.90;;;;;;4959165;28;20153;-85
2021/03/18 08:12:54;;;;;;;3.83;1.23;;;3.40;99.90;;;;;;4955266;28;20655;-85
2021/03/18 08:15:45;;;;;;;17.13;3.97;;;3.40;99.90;;;;;;4965513;28;20050;-84
2021/03/18 08:18:15;;;;;;;4.35;1.65;;;3.40;99.90;;;;;;4968501;28;20432;-85
2021/03/18 08:20:42;;;;;;;5.50;1.52;;;3.40;99.90;;;;;;4958963;28;20050;-85
2021/03/18 08:23:24;;;;;;;5.38;1.83;;;3.50;99.90;;;;;;4958551;28;20059;-85
2021/03/18 08:25:58;;;;;;;4.30;1.45;;;3.50;99.90;;;;;;4952321;28;20074;-86
2021/03/18 08:28:41;;;;;;;3.58;2.22;;;3.60;99.90;;;;;;4968346;28;20134;-85
2021/03/18 08:31:20;;;;;;;15.45;2.45;;;3.60;99.90;;;;;;4949359;28;23103;-85
2021/03/18 08:33:52;;;;;;;8.57;1.85;;;3.50;99.90;;;;;;4936752;28;20047;-85
2021/03/18 08:36:36;;;;;;;9.75;1.70;;;3.40;99.90;;;;;;4942825;28;20061;-85
2021/03/18 08:39:09;;;;;;;3.67;1.40;;;3.30;99.90;;;;;;4973420;28;20051;-84
2021/03/18 08:41:44;;;;;;;4.97;1.70;;;3.30;99.90;;;;;;4973885;28;20066;-85
2021/03/18 08:44:40;;;;;;;5.55;1.48;;;3.30;99.90;;;;;;4954641;28;20039;-85
2021/03/18 08:47:11;;;;;;;5.30;1.50;;;3.30;99.90;;;;;;4960167;28;21473;-84
2021/03/18 08:49:38;;;;;;;9.80;2.25;;;3.20;99.90;;;;;;4957002;28;20050;-84
2021/03/18 08:52:10;;;;;;;8.35;1.42;;;3.20;99.90;;;;;;4940722;28;20413;-84
2021/03/18 08:54:39;;;;;;;6.13;1.63;;;3.20;99.90;;;;;;4956245;28;20055;-84
2021/03/18 08:57:20;;;;;;;8.35;1.27;;;3.30;99.90;;;;;;4966886;28;20145;-84
2021/03/18 09:00:18;;;;;;;4.80;1.20;;;3.30;99.90;;;;;;4956219;28;20350;-84
2021/03/18 09:02:48;;;;;;;5.93;1.23;;;3.30;99.90;;;;;;4943444;28;20109;-85
2021/03/18 09:05:22;;;;;;;3.13;1.13;;;3.50;99.90;;;;;;4952410;28;20051;-85
2021/03/18 09:08:08;;;;;;;1.52;1.10;;;3.60;99.90;;;;;;4926452;28;20051;-85
2021/03/18 09:10:36;;;;;;;4.97;1.30;;;3.50;99.90;;;;;;4953468;28;20055;-84
2021/03/18 09:13:21;;;;;;;4.72;1.00;;;3.50;99.90;;;;;;4950084;28;20034;-84
2021/03/18 09:15:57;;;;;;;7.57;2.65;;;3.60;99.90;;;;;;4942355;28;20049;-84
2021/03/18 09:18:29;;;;;;;2.83;1.40;;;3.70;99.90;;;;;;4959040;28;20142;-84
2021/03/18 09:21:08;;;;;;;5.97;1.17;;;3.90;99.90;;;;;;4960738;28;20681;-84
2021/03/18 09:24:29;;;;;;;6.85;1.40;;;4.00;99.90;;;;;;4952245;28;20074;-84
2021/03/18 09:27:07;;;;;;;8.80;3.72;;;4.10;99.90;;;;;;4945691;28;20066;-84
2021/03/18 09:29:37;;;;;;;8.13;2.28;;;4.10;99.90;;;;;;4947952;28;20063;-84
2021/03/18 09:32:08;;;;;;;;;;;4.10;99.90;;;;;;4948139;28;20051;-86
2021/03/18 09:34:37;;;;;;;7.03;2.13;;;4.20;99.90;;;;;;4977924;28;19930;-85
2021/03/18 09:37:05;;;;;;;3.78;1.38;;;4.10;99.90;;;;;;4959491;28;20050;-85
2021/03/18 09:39:32;;;;;;;4.53;1.73;;;4.10;99.90;;;;;;4956940;28;20085;-86
2021/03/18 09:42:02;;;;;;;3.08;1.20;;;4.00;99.90;;;;;;4960327;28;20369;-86
2021/03/18 09:44:30;;;;;;;7.13;1.35;;;3.90;99.90;;;;;;4935166;28;20569;-85
2021/03/18 09:47:09;;;;;;;8.07;1.77;;;3.90;99.90;;;;;;4966834;28;20046;-86
2021/03/18 09:49:52;;;;;;;5.77;2.23;;;3.90;99.90;;;;;;4960921;28;20511;-86
2021/03/18 09:52:28;;;;;;;6.47;2.10;;;3.90;99.90;;;;;;4959811;28;20047;-86
2021/03/18 09:54:59;;;;;;;6.80;2.03;;;3.70;99.90;;;;;;4951462;28;20704;-85
2021/03/18 09:57:30;;;;;;;2.40;1.88;;;3.60;99.90;;;;;;4961340;28;20448;-85
2021/03/18 09:59:57;;;;;;;10.55;2.75;;;3.60;99.90;;;;;;4959623;28;20051;-86
2021/03/18 10:02:28;;;;;;;5.60;1.55;;;3.60;99.90;;;;;;4961293;28;20051;-86
2021/03/18 10:04:56;;;;;;;6.43;1.67;;;3.50;99.90;;;;;;4926308;28;20054;-86
2021/03/18 10:07:31;;;;;;;6.15;2.03;;;3.50;99.90;;;;;;4961599;28;20512;-86
2021/03/18 10:09:59;;;;;;;12.38;2.55;;;3.40;99.90;;;;;;4931634;28;20062;-86
2021/03/18 10:12:33;;;;;;;3.38;1.38;;;3.50;99.90;;;;;;4952307;28;20047;-86
2021/03/18 10:15:05;;;;;;;14.40;1.60;;;3.40;99.90;;;;;;4941762;28;20113;-85
2021/03/18 10:17:40;;;;;;;4.88;2.17;;;3.40;99.90;;;;;;4960858;28;20085;-85
2021/03/18 10:20:21;;;;;;;6.22;1.67;;;3.50;99.90;;;;;;4956775;28;20049;-86
2021/03/18 10:23:26;;;;;;;6.15;1.45;;;3.40;99.90;;;;;;4960372;28;20058;-86
2021/03/18 10:26:05;;;;;;;2.35;1.00;;;3.40;99.90;;;;;;4909365;28;20043;-86
2021/03/18 10:28:32;;;;;;;4.25;1.73;;;3.40;99.90;;;;;;4957062;28;20708;-86
2021/03/18 10:31:20;;;;;;;3.78;1.58;;;3.30;99.90;;;;;;4960718;28;20138;-86
2021/03/18 10:33:55;;;;;;;6.78;1.58;;;3.30;99.90;;;;;;4956910;28;20814;-85
2021/03/18 10:36:40;;;;;;;3.65;1.40;;;3.40;99.90;;;;;;4956797;28;20053;-85
2021/03/18 10:39:26;;;;;;;6.72;1.80;;;3.40;99.90;;;;;;4960309;28;20512;-85
2021/03/18 10:41:57;;;;;;;5.07;1.15;;;3.60;99.90;;;;;;4971749;28;20049;-86
2021/03/18 10:44:46;;;;;;;6.25;1.50;;;3.50;99.90;;;;;;4960204;28;20039;-86
2021/03/18 10:47:22;;;;;;;7.45;2.65;;;3.60;99.90;;;;;;4946291;28;20054;-86
2021/03/18 10:50:07;;;;;;;11.55;2.83;;;3.80;99.90;;;;;;4961054;28;20142;-85
2021/03/18 10:52:39;;;;;;;14.77;2.67;;;3.70;99.90;;;;;;4950855;28;20219;-85
2021/03/18 10:55:26;;;;;;;3.67;1.38;;;3.70;99.90;;;;;;4953132;28;20054;-86
2021/03/18 10:57:58;;;;;;;2.85;2.20;;;3.70;99.90;;;;;;4951841;28;20046;-85
2021/03/18 11:00:26;;;;;;;4.28;0.95;;;3.50;99.90;;;;;;4954335;28;20492;-86
2021/03/18 11:03:15;;;;;;;2.45;0.90;;;3.50;99.90;;;;;;4959613;28;20057;-86
2021/03/18 11:05:51;;;;;;;0.90;0.55;;;3.30;99.90;;;;;;4974144;28;20059;-85
2021/03/18 11:08:30;;;;;;;4.25;0.40;;;3.20;99.90;;;;;;4958545;28;20047;-85
2021/03/18 11:11:02;;;;;;;0.73;0.60;;;3.20;99.90;;;;;;4953259;28;20055;-86
2021/03/18 11:13:30;;;;;;;1.45;0.90;;;3.20;99.90;;;;;;4960509;28;20073;-85
2021/03/18 11:16:04;;;;;;;0.98;0.60;;;3.10;99.90;;;;;;4954648;28;20644;-86
2021/03/18 11:18:43;;;;;;;9.82;1.70;;;3.20;99.90;;;;;;4940677;28;20127;-86
2021/03/18 11:21:29;;;;;;;6.72;1.65;;;3.20;99.90;;;;;;4953719;28;20042;-86
2021/03/18 11:24:19;;;;;;;6.32;2.55;;;3.20;99.90;;;;;;4955582;28;20113;-86
2021/03/18 11:27:00;;;;;;;9.43;1.23;;;3.10;99.90;;;;;;4960556;28;20043;-86
2021/03/18 11:29:30;;;;;;;2.50;1.52;;;3.10;99.90;;;;;;4957954;28;20748;-85
2021/03/18 11:31:59;;;;;;;3.13;2.65;;;3.10;99.90;;;;;;4953138;28;20055;-86
2021/03/18 11:34:32;;;;;;;4.18;1.40;;;3.00;99.90;;;;;;4938718;28;20555;-84
2021/03/18 11:37:05;;;;;;;18.85;2.13;;;3.00;99.90;;;;;;4969569;28;20129;-84
2021/03/18 11:39:36;;;;;;;4.70;1.63;;;3.20;99.90;;;;;;4971028;28;20054;-85
2021/03/18 11:42:08;;;;;;;9.10;2.25;;;3.30;99.90;;;;;;4941743;28;20166;-85
2021/03/18 11:44:35;;;;;;;5.93;1.60;;;3.20;99.90;;;;;;4973871;28;20121;-86
2021/03/18 11:47:04;;;;;;;8.65;2.58;;;3.30;99.90;;;;;;4958393;28;20043;-85
2021/03/18 11:49:31;;;;;;;3.80;1.73;;;3.40;99.90;;;;;;4956946;28;20054;-86
2021/03/18 11:51:58;;;;;;;8.27;1.80;;;3.50;99.90;;;;;;4948089;28;20066;-85
2021/03/18 11:54:35;;;;;;;4.50;1.17;;;3.50;99.90;;;;;;4937086;28;20070;-86
2021/03/18 11:57:06;;;;;;;;;;;3.40;99.90;;;;;;4948441;28;20134;-86
2021/03/18 11:59:33;;;;;;;13.98;1.15;;;3.40;99.90;;;;;;4953721;28;19930;-86
2021/03/18 12:02:01;;;;;;;3.85;1.63;;;3.40;99.90;;;;;;4959368;28;20079;-85
2021/03/18 12:04:28;;;;;;;12.77;1.67;;;3.40;99.90;;;;;;4936581;28;20050;-86
2021/03/18 12:06:57;;;;;;;9.35;1.90;;;3.40;99.90;;;;;;4947840;28;20042;-85
2021/03/18 12:09:26;;;;;;;10.30;1.60;;;3.50;99.90;;;;;;4958921;28;20043;-86
2021/03/18 12:11:52;;;;;;;6.45;1.50;;;3.70;99.90;;;;;;4954896;28;21108;-85
2021/03/18 12:14:21;;;;;;;14.63;1.75;;;3.60;99.90;;;;;;4957843;28;20062;-85
2021/03/18 12:16:48;;;;;;;4.35;1.70;;;3.60;99.90;;;;;;4977948;28;20515;-86
2021/03/18 12:19:40;;;;;;;4.13;1.17;;;3.60;99.90;;;;;;4958854;28;20153;-85
2021/03/18 12:22:07;;;;;;;4.45;1.63;;;3.50;99.90;;;;;;4958472;28;20051;-85
2021/03/18 12:24:34;;;;;;;2.55;1.42;;;3.60;99.90;;;;;;4959114;28;20050;-85
2021/03/18 12:27:04;;;;;;;3.42;1.25;;;3.70;99.90;;;;;;4958292;28;20046;-85
2021/03/18 12:29:30;;;;;;;2.13;1.17;;;3.70;99.90;;;;;;4958524;28;20101;-85
2021/03/18 12:31:57;;;;;;;2.45;1.20;;;3.60;99.90;;;;;;4946000;28;20058;-86
2021/03/18 12:34:24;;;;;;;1.70;1.02;;;3.70;99.90;;;;;;4940812;28;20736;-85
2021/03/18 12:36:50;;;;;;;10.05;1.30;;;3.70;99.90;;;;;;4957473;28;20061;-85
2021/03/18 12:39:20;;;;;;;3.00;1.25;;;3.70;99.90;;;;;;4954093;28;20047;-85
2021/03/18 12:41:49;;;;;;;9.82;1.95;;;3.70;99.90;;;;;;4927017;28;20097;-85
2021/03/18 12:44:20;;;;;;;2.50;1.02;;;3.70;99.90;;;;;;4949520;28;20056;-85
2021/03/18 12:46:49;;;;;;;6.00;1.02;;;3.70;99.90;;;;;;4941386;28;20058;-85
2021/03/18 12:49:20;;;;;;;6.95;1.20;;;3.70;99.90;;;;;;4958958;28;20097;-86
2021/03/18 12:51:47;;;;;;;2.22;1.48;;;3.60;99.90;;;;;;4961958;28;20117;-86
2021/03/18 12:54:15;;;;;;;5.65;1.20;;;3.50;99.90;;;;;;4933901;28;20058;-85
2021/03/18 12:56:45;;;;;;;1.52;0.77;;;3.50;99.90;;;;;;4930446;28;20059;-85
2021/03/18 12:59:11;;;;;;;4.80;3.53;;;3.60;99.90;;;;;;4921187;28;20418;-86
2021/03/18 13:01:38;;;;;;;1.15;1.00;;;3.50;99.90;;;;;;4954101;28;20077;-86
2021/03/18 13:04:07;;;;;;;1.58;0.80;;;3.30;99.90;;;;;;4949125;28;20141;-85
2021/03/18 13:06:40;;;;;;;4.35;1.27;;;3.50;99.90;;;;;;4956772;28;20042;-86
2021/03/18 13:09:11;;;;;;;6.30;1.83;;;3.40;99.90;;;;;;4958673;28;20055;-85
2021/03/18 13:11:48;;;;;;;4.75;1.13;;;3.50;99.90;;;;;;4942302;28;20133;-86
2021/03/18 13:14:15;;;;;;;3.78;1.10;;;3.70;99.90;;;;;;4945908;28;20099;-85
2021/03/18 13:16:42;;;;;;;4.20;1.45;;;3.90;99.90;;;;;;4949361;28;20105;-86
2021/03/18 13:19:10;;;;;;;8.93;2.63;;;3.90;99.90;;;;;;4963686;28;21067;-86
2021/03/18 13:21:39;;;;;;;5.72;0.82;;;3.80;99.90;;;;;;4956766;28;21526;-85